Time;durP1;ratioP1;P1;durP2;ratioP2;P2;SDS_P1;SDS_P2;PMS_P1;PMS_P2;Temp;Humidity;BMP_temperature;BMP_pressure;BME280_temperature;BME280_humidity;BME280_pressure;Samples;Min_cycle;Max_cycle;Signal;HPM_P1;HPM_P2
2021/12/31 00:00:45;;;;;;;5.60;3.25;;;14.20;90.70;;;;;;5098465;28;20019;-77
2021/12/31 00:03:10;;;;;;;3.63;2.75;;;14.20;90.70;;;;;;5098411;28;20023;-73
2021/12/31 00:05:36;;;;;;;4.80;2.65;;;14.10;90.70;;;;;;5116574;28;20028;-78
2021/12/31 00:08:01;;;;;;;4.03;2.88;;;14.10;90.70;;;;;;5116473;28;20024;-77
2021/12/31 00:10:27;;;;;;;3.58;2.40;;;14.10;90.70;;;;;;5098177;28;20031;-77
2021/12/31 00:12:53;;;;;;;6.93;2.60;;;14.20;90.70;;;;;;5116374;28;20528;-77
2021/12/31 00:15:18;;;;;;;3.58;2.67;;;14.20;90.70;;;;;;5116374;28;20093;-77
2021/12/31 00:17:44;;;;;;;4.20;2.80;;;14.20;90.70;;;;;;5116369;28;20160;-77
2021/12/31 00:20:19;;;;;;;5.32;2.67;;;14.20;90.70;;;;;;5116146;28;20055;-77
2021/12/31 00:25:20;;;;;;;5.07;2.33;;;14.10;90.70;;;;;;5116493;28;20364;-77
2021/12/31 00:27:46;;;;;;;6.85;2.80;;;14.10;90.70;;;;;;5097793;28;20024;-77
2021/12/31 00:30:13;;;;;;;5.57;2.08;;;14.20;90.70;;;;;;5116196;28;20026;-78
2021/12/31 00:32:38;;;;;;;4.03;2.30;;;14.10;90.70;;;;;;5097046;28;20016;-77
2021/12/31 00:35:05;;;;;;;4.82;2.40;;;14.20;90.70;;;;;;5097764;28;20022;-77
2021/12/31 00:37:37;;;;;;;4.03;2.22;;;14.10;90.60;;;;;;5115952;28;20028;-77
2021/12/31 00:40:06;;;;;;;4.40;2.20;;;14.20;90.60;;;;;;5115839;28;20024;-73
2021/12/31 00:42:31;;;;;;;4.13;2.33;;;14.10;90.60;;;;;;5097595;28;20032;-72
2021/12/31 00:44:57;;;;;;;5.57;2.20;;;14.20;90.60;;;;;;5097345;28;20026;-73
2021/12/31 00:47:22;;;;;;;4.60;2.33;;;14.20;90.60;;;;;;5115523;28;20024;-73
2021/12/31 00:49:48;;;;;;;4.03;2.03;;;14.20;90.60;;;;;;5097391;28;20435;-73
2021/12/31 00:52:15;;;;;;;5.28;1.95;;;14.10;90.50;;;;;;5115535;28;20024;-73
2021/12/31 00:54:41;;;;;;;4.55;2.10;;;14.20;90.60;;;;;;5115452;28;20406;-73
2021/12/31 00:57:06;;;;;;;4.85;2.15;;;14.10;90.50;;;;;;5097149;28;20020;-73
2021/12/31 00:59:33;;;;;;;4.95;2.22;;;14.20;90.50;;;;;;5115488;28;20023;-73
2021/12/31 01:02:00;;;;;;;3.75;2.20;;;14.10;90.40;;;;;;5115402;28;20027;-73
2021/12/31 01:04:26;;;;;;;6.28;2.10;;;14.20;90.40;;;;;;5097073;28;20034;-73
2021/12/31 01:06:53;;;;;;;4.40;2.00;;;14.10;90.40;;;;;;5097144;28;20020;-72
2021/12/31 01:09:19;;;;;;;3.95;1.92;;;14.20;90.40;;;;;;5096899;28;20020;-77
2021/12/31 01:11:48;;;;;;;7.18;2.38;;;14.20;90.40;;;;;;5097025;28;20432;-77
2021/12/31 01:14:26;;;;;;;5.60;2.10;;;14.10;90.30;;;;;;5096822;28;20387;-77
2021/12/31 01:16:57;;;;;;;5.32;2.00;;;14.10;90.30;;;;;;5115143;28;20031;-77
2021/12/31 01:21:50;;;;;;;4.55;2.00;;;14.10;90.30;;;;;;5115075;28;20498;-77
2021/12/31 01:24:18;;;;;;;3.55;1.50;;;14.10;90.30;;;;;;5096501;28;20066;-72
2021/12/31 01:26:44;;;;;;;3.80;1.90;;;14.10;90.30;;;;;;5115042;28;20031;-73
2021/12/31 01:29:10;;;;;;;4.57;1.83;;;14.10;90.20;;;;;;5114779;28;20106;-73
2021/12/31 01:31:35;;;;;;;2.85;1.75;;;14.10;90.30;;;;;;5114745;28;20055;-73
2021/12/31 01:34:01;;;;;;;3.78;1.80;;;14.10;90.20;;;;;;5114738;28;20521;-73
2021/12/31 01:36:27;;;;;;;3.85;1.52;;;14.10;90.20;;;;;;5096253;28;20528;-73
2021/12/31 01:38:53;;;;;;;4.63;1.67;;;14.10;90.20;;;;;;5096309;28;20019;-73
2021/12/31 01:41:20;;;;;;;3.03;1.38;;;14.10;90.20;;;;;;5114451;28;20427;-73
2021/12/31 01:43:45;;;;;;;5.97;1.70;;;14.10;90.20;;;;;;5095310;28;20023;-73
2021/12/31 01:46:12;;;;;;;2.45;1.52;;;14.20;90.50;;;;;;5096000;28;20390;-73
2021/12/31 01:51:22;;;;;;;3.38;1.50;;;14.10;90.20;;;;;;5114640;28;20035;-73
2021/12/31 01:53:48;;;;;;;3.65;1.60;;;14.20;90.20;;;;;;5096011;28;20047;-73
2021/12/31 01:56:15;;;;;;;2.80;1.60;;;14.20;90.20;;;;;;5096046;28;20012;-73
2021/12/31 01:58:42;;;;;;;2.95;1.20;;;14.20;90.20;;;;;;5095850;28;20444;-73
2021/12/31 02:01:07;;;;;;;2.45;1.35;;;14.20;90.20;;;;;;5095776;28;20020;-73
2021/12/31 02:03:34;;;;;;;4.03;1.50;;;14.20;90.20;;;;;;5114025;28;20173;-73
2021/12/31 02:06:00;;;;;;;2.58;1.35;;;14.20;90.10;;;;;;5113975;28;20015;-73
2021/12/31 02:08:25;;;;;;;3.05;1.80;;;14.20;90.10;;;;;;5113860;28;20024;-73
2021/12/31 02:10:51;;;;;;;3.80;1.50;;;14.20;90.10;;;;;;5113959;28;20456;-73
2021/12/31 02:13:19;;;;;;;2.03;1.27;;;14.20;90.10;;;;;;5095562;28;20043;-73
2021/12/31 02:15:45;;;;;;;2.00;1.33;;;14.20;90.10;;;;;;5095537;28;20019;-73
2021/12/31 02:18:11;;;;;;;2.55;1.50;;;14.20;90.10;;;;;;5113804;28;20060;-73
2021/12/31 02:20:42;;;;;;;3.67;1.48;;;14.20;90.10;;;;;;5095552;28;20106;-73
2021/12/31 02:23:14;;;;;;;2.83;1.42;;;14.20;90.10;;;;;;5095502;28;20027;-73
2021/12/31 02:25:40;;;;;;;3.95;1.63;;;14.20;90.00;;;;;;5095389;28;20027;-73
2021/12/31 02:28:06;;;;;;;3.22;1.50;;;14.20;90.00;;;;;;5113482;28;20024;-73
2021/12/31 02:30:31;;;;;;;3.83;1.67;;;14.20;89.80;;;;;;5095330;28;20020;-73
2021/12/31 02:32:57;;;;;;;2.60;1.40;;;14.20;89.70;;;;;;5095260;28;20018;-73
2021/12/31 02:35:23;;;;;;;4.15;1.67;;;14.20;89.70;;;;;;5113495;28;20328;-73
2021/12/31 02:37:48;;;;;;;2.15;1.27;;;14.20;89.60;;;;;;5095259;28;20518;-73
2021/12/31 02:40:17;;;;;;;1.98;1.30;;;14.30;89.50;;;;;;5095143;28;20066;-73
2021/12/31 02:42:42;;;;;;;2.83;1.50;;;14.30;89.50;;;;;;5095008;28;20475;-73
2021/12/31 02:45:10;;;;;;;1.55;1.27;;;14.20;89.30;;;;;;5095039;28;20031;-73
2021/12/31 02:47:44;;;;;;;3.13;1.30;;;14.20;89.20;;;;;;5094990;28;20391;-73
2021/12/31 02:50:12;;;;;;;2.20;1.38;;;14.30;89.20;;;;;;5094981;28;20467;-73
2021/12/31 02:52:38;;;;;;;2.83;1.40;;;14.30;89.10;;;;;;5095005;28;20045;-73
2021/12/31 02:55:05;;;;;;;2.85;1.30;;;14.30;89.10;;;;;;5112789;28;20398;-74
2021/12/31 02:57:30;;;;;;;3.35;1.48;;;14.30;89.00;;;;;;5113190;28;20035;-73
2021/12/31 02:59:56;;;;;;;4.93;1.77;;;14.30;88.90;;;;;;5094916;28;20386;-73
2021/12/31 03:02:24;;;;;;;5.47;1.45;;;14.30;89.40;;;;;;5113274;28;20539;-73
2021/12/31 03:04:51;;;;;;;2.90;1.40;;;14.30;88.80;;;;;;5094821;28;20015;-73
2021/12/31 03:07:18;;;;;;;4.70;1.40;;;14.30;88.80;;;;;;5112969;28;20027;-73
2021/12/31 03:09:47;;;;;;;3.97;1.50;;;14.30;88.80;;;;;;5094793;28;20028;-73
2021/12/31 03:12:15;;;;;;;2.42;1.30;;;14.30;88.80;;;;;;5094734;28;20394;-73
2021/12/31 03:14:43;;;;;;;4.50;1.42;;;14.30;88.60;;;;;;5094719;28;20024;-73
2021/12/31 03:17:09;;;;;;;1.77;1.25;;;14.30;88.60;;;;;;5112973;28;20038;-73
2021/12/31 03:19:36;;;;;;;4.53;1.50;;;14.30;88.50;;;;;;5094716;28;20102;-73
2021/12/31 03:22:02;;;;;;;2.38;1.20;;;14.30;88.50;;;;;;5094922;28;20407;-73
2021/12/31 03:24:27;;;;;;;2.17;1.42;;;14.30;88.60;;;;;;5094728;28;20027;-73
2021/12/31 03:26:53;;;;;;;4.35;1.40;;;14.30;88.60;;;;;;5094563;28;20028;-73
2021/12/31 03:29:18;;;;;;;3.53;1.17;;;14.30;88.50;;;;;;5112829;28;20023;-73
2021/12/31 03:31:44;;;;;;;2.85;1.20;;;14.30;88.50;;;;;;5094590;28;20380;-73
2021/12/31 03:34:10;;;;;;;2.35;1.20;;;14.30;88.40;;;;;;5112730;28;20020;-73
2021/12/31 03:36:37;;;;;;;1.92;1.23;;;14.30;88.50;;;;;;5094316;28;20391;-73
2021/12/31 03:39:03;;;;;;;2.05;1.10;;;14.30;88.40;;;;;;5094508;28;20031;-73
2021/12/31 03:41:29;;;;;;;1.35;1.25;;;14.30;88.30;;;;;;5094323;28;20031;-73
2021/12/31 03:43:54;;;;;;;3.42;1.30;;;14.30;88.20;;;;;;5094499;28;20130;-73
2021/12/31 03:46:20;;;;;;;1.98;1.10;;;14.30;88.20;;;;;;5094382;28;20024;-73
2021/12/31 03:48:46;;;;;;;3.05;1.10;;;14.30;88.20;;;;;;5112695;28;20406;-72
2021/12/31 03:51:11;;;;;;;3.15;1.30;;;14.30;88.10;;;;;;5112986;28;20471;-73
2021/12/31 03:53:37;;;;;;;2.55;1.30;;;14.30;88.10;;;;;;5094164;28;20120;-73
2021/12/31 03:56:03;;;;;;;2.70;1.20;;;14.30;88.10;;;;;;5112679;28;20049;-72
2021/12/31 03:58:28;;;;;;;2.33;1.20;;;14.30;88.10;;;;;;5094390;28;20114;-72
2021/12/31 04:00:54;;;;;;;2.33;1.20;;;14.30;88.00;;;;;;5094339;28;20046;-72
2021/12/31 04:03:19;;;;;;;2.00;1.20;;;14.30;88.00;;;;;;5094270;28;20020;-72
2021/12/31 04:05:45;;;;;;;3.20;1.45;;;14.30;88.00;;;;;;5112561;28;20031;-72
2021/12/31 04:08:11;;;;;;;3.38;1.17;;;14.30;87.90;;;;;;5097648;28;20072;-72
2021/12/31 04:10:37;;;;;;;4.07;1.30;;;14.30;87.80;;;;;;5097941;28;20027;-76
2021/12/31 04:13:03;;;;;;;2.17;1.13;;;14.30;87.90;;;;;;5097800;28;20049;-76
2021/12/31 04:15:29;;;;;;;3.13;1.08;;;14.30;88.00;;;;;;5097849;28;20024;-76
2021/12/31 04:17:54;;;;;;;2.47;1.25;;;14.30;88.00;;;;;;5098058;28;20023;-77
2021/12/31 04:20:40;;;;;;;3.22;1.65;;;14.30;87.80;;;;;;5097683;28;20023;-76
2021/12/31 04:23:12;;;;;;;2.72;1.30;;;14.20;87.70;;;;;;5097609;28;20031;-77
2021/12/31 04:25:38;;;;;;;1.63;1.35;;;14.30;87.70;;;;;;5097780;28;20115;-76
2021/12/31 04:28:05;;;;;;;2.45;1.35;;;14.30;87.70;;;;;;5115786;28;20486;-76
2021/12/31 04:30:31;;;;;;;4.18;1.40;;;14.30;87.80;;;;;;5097679;28;20020;-77
2021/12/31 04:32:56;;;;;;;4.00;1.40;;;14.20;87.70;;;;;;5115750;28;20383;-76
2021/12/31 04:35:22;;;;;;;4.03;1.67;;;14.20;87.50;;;;;;5097485;28;20445;-77
2021/12/31 04:37:47;;;;;;;4.07;1.45;;;14.30;87.50;;;;;;5097506;28;20019;-76
2021/12/31 04:40:14;;;;;;;3.47;1.50;;;14.20;87.30;;;;;;5097291;28;20047;-76
2021/12/31 04:42:41;;;;;;;4.05;1.60;;;14.20;87.40;;;;;;5097305;28;20020;-77
2021/12/31 04:45:08;;;;;;;3.00;1.45;;;14.20;87.30;;;;;;5115506;28;20028;-77
2021/12/31 04:47:34;;;;;;;4.70;1.30;;;14.20;87.40;;;;;;5097581;28;20099;-77
2021/12/31 04:49:59;;;;;;;4.68;1.35;;;14.20;87.50;;;;;;5115486;28;20016;-76
2021/12/31 04:52:25;;;;;;;1.58;1.30;;;14.20;87.60;;;;;;5097091;28;20415;-76
2021/12/31 04:54:50;;;;;;;4.35;1.65;;;14.20;87.60;;;;;;5097111;28;20089;-77
2021/12/31 04:57:16;;;;;;;1.92;1.42;;;14.20;87.60;;;;;;5097024;28;20159;-76
2021/12/31 04:59:42;;;;;;;3.00;1.40;;;14.20;87.60;;;;;;5097056;28;20038;-77
2021/12/31 05:02:07;;;;;;;2.53;1.40;;;14.20;87.70;;;;;;5096844;28;20114;-77
2021/12/31 05:04:33;;;;;;;1.88;1.50;;;14.20;87.70;;;;;;5115196;28;20361;-77
2021/12/31 05:06:58;;;;;;;3.80;1.35;;;14.20;87.70;;;;;;5096664;28;20020;-76
2021/12/31 05:09:24;;;;;;;3.80;1.50;;;14.10;87.70;;;;;;5115300;28;20024;-77
2021/12/31 05:11:50;;;;;;;4.93;1.50;;;14.10;87.60;;;;;;5096771;28;20016;-77
2021/12/31 05:14:16;;;;;;;3.63;1.30;;;14.10;87.60;;;;;;5114975;28;20012;-77
2021/12/31 05:16:41;;;;;;;3.28;1.40;;;14.20;87.70;;;;;;5115115;28;20402;-77
2021/12/31 05:19:07;;;;;;;3.08;1.40;;;14.20;87.70;;;;;;5096490;28;20016;-77
2021/12/31 05:21:33;;;;;;;3.20;1.80;;;14.10;87.60;;;;;;5096589;28;20016;-72
2021/12/31 05:23:59;;;;;;;2.83;1.40;;;14.10;87.50;;;;;;5114736;28;20547;-73
2021/12/31 05:26:24;;;;;;;2.42;1.33;;;14.10;87.60;;;;;;5096429;28;20026;-72
2021/12/31 05:28:50;;;;;;;2.30;1.27;;;14.20;87.60;;;;;;5114868;28;20345;-72
2021/12/31 05:31:16;;;;;;;3.33;1.45;;;14.10;87.50;;;;;;5096297;28;20031;-73
2021/12/31 05:33:42;;;;;;;3.60;1.55;;;14.10;87.50;;;;;;5114601;28;20031;-73
2021/12/31 05:36:08;;;;;;;2.13;1.48;;;14.10;87.60;;;;;;5096151;28;20020;-73
2021/12/31 05:38:34;;;;;;;4.53;1.67;;;14.10;87.60;;;;;;5114559;28;20095;-72
2021/12/31 05:40:59;;;;;;;2.55;1.27;;;14.10;87.50;;;;;;5114575;28;20020;-72
2021/12/31 05:43:25;;;;;;;3.95;1.80;;;14.10;87.50;;;;;;5114519;28;20053;-72
2021/12/31 05:45:50;;;;;;;2.50;1.60;;;14.10;87.60;;;;;;5096132;28;20020;-73
2021/12/31 05:48:16;;;;;;;2.95;1.50;;;14.10;87.60;;;;;;5114513;28;20024;-72
2021/12/31 05:50:42;;;;;;;2.65;1.27;;;14.00;87.60;;;;;;5096081;28;20425;-72
2021/12/31 05:53:07;;;;;;;1.88;1.40;;;14.10;87.70;;;;;;5114367;28;20028;-73
2021/12/31 05:55:33;;;;;;;2.65;1.50;;;14.00;87.60;;;;;;5114043;28;20228;-72
2021/12/31 05:58:00;;;;;;;7.47;1.88;;;14.00;87.60;;;;;;5095919;28;20028;-72
2021/12/31 06:00:26;;;;;;;3.50;1.77;;;14.00;87.70;;;;;;5114161;28;20024;-72
2021/12/31 06:02:52;;;;;;;2.47;1.40;;;14.00;87.70;;;;;;5114089;28;20061;-72
2021/12/31 06:05:17;;;;;;;3.40;1.67;;;14.00;87.70;;;;;;5114010;28;20031;-73
2021/12/31 06:07:43;;;;;;;2.80;1.58;;;14.00;87.60;;;;;;5114079;28;20447;-72
2021/12/31 06:10:09;;;;;;;3.92;1.92;;;14.00;87.60;;;;;;5095698;28;20066;-72
2021/12/31 06:12:35;;;;;;;2.17;1.73;;;14.00;87.60;;;;;;5113953;28;20106;-72
2021/12/31 06:15:03;;;;;;;4.15;1.70;;;14.00;87.60;;;;;;5095616;28;20015;-72
2021/12/31 06:17:30;;;;;;;3.03;1.50;;;14.00;87.60;;;;;;5113851;28;20475;-72
2021/12/31 06:19:56;;;;;;;2.60;1.65;;;14.00;87.60;;;;;;5113765;28;20152;-73
2021/12/31 06:22:22;;;;;;;2.22;1.50;;;14.00;87.60;;;;;;5113970;28;20110;-72
2021/12/31 06:24:49;;;;;;;3.42;1.60;;;14.00;87.60;;;;;;5113750;28;20031;-72
2021/12/31 06:27:15;;;;;;;3.17;1.50;;;14.00;87.50;;;;;;5095212;28;20035;-72
2021/12/31 06:29:40;;;;;;;3.92;1.70;;;14.00;87.50;;;;;;5113193;28;20498;-72
2021/12/31 06:32:06;;;;;;;3.35;1.40;;;14.00;87.50;;;;;;5095297;28;20436;-72
2021/12/31 06:34:32;;;;;;;1.60;1.35;;;14.00;87.50;;;;;;5113603;28;20360;-73
2021/12/31 06:36:57;;;;;;;3.03;1.40;;;13.90;87.50;;;;;;5095390;28;20023;-73
2021/12/31 06:39:25;;;;;;;3.65;1.60;;;13.90;88.10;;;;;;5113666;28;20106;-72
2021/12/31 06:41:51;;;;;;;2.17;1.33;;;13.90;87.40;;;;;;5113465;28;20051;-73
2021/12/31 06:44:16;;;;;;;2.83;1.80;;;13.80;87.40;;;;;;5113387;28;20059;-77
2021/12/31 06:46:42;;;;;;;4.70;1.50;;;13.80;87.30;;;;;;5095092;28;20486;-76
2021/12/31 06:49:07;;;;;;;4.78;1.60;;;13.80;87.40;;;;;;5113337;28;20425;-77
2021/12/31 06:51:33;;;;;;;3.90;1.70;;;13.80;87.50;;;;;;5095149;28;20532;-77
2021/12/31 06:53:58;;;;;;;2.50;1.90;;;13.70;87.50;;;;;;5094953;28;20403;-77
2021/12/31 06:56:24;;;;;;;3.63;1.80;;;13.70;87.40;;;;;;5095108;28;20097;-77
2021/12/31 06:58:50;;;;;;;5.15;1.80;;;13.60;87.40;;;;;;5095081;28;20336;-77
2021/12/31 07:01:15;;;;;;;3.60;1.70;;;13.60;87.30;;;;;;5094952;28;20027;-77
2021/12/31 07:03:41;;;;;;;3.58;1.50;;;13.60;87.40;;;;;;5113351;28;20053;-77
2021/12/31 07:06:06;;;;;;;2.83;1.67;;;13.50;87.50;;;;;;5113275;28;20031;-76
2021/12/31 07:08:32;;;;;;;4.22;1.90;;;13.50;87.60;;;;;;5095013;28;20023;-77
2021/12/31 07:10:57;;;;;;;2.63;1.67;;;13.50;87.50;;;;;;5095084;28;20024;-77
2021/12/31 07:13:23;;;;;;;3.13;1.40;;;13.50;87.50;;;;;;5094846;28;20501;-77
2021/12/31 07:15:50;;;;;;;2.25;1.45;;;13.40;87.50;;;;;;5094960;28;20102;-77
2021/12/31 07:18:17;;;;;;;3.10;1.42;;;13.40;87.50;;;;;;5113085;28;20526;-77
2021/12/31 07:20:43;;;;;;;1.85;1.40;;;13.40;87.50;;;;;;5094970;28;20077;-77
2021/12/31 07:23:11;;;;;;;3.60;1.60;;;13.40;87.50;;;;;;5094918;28;20059;-77
2021/12/31 07:25:38;;;;;;;2.03;1.60;;;13.30;87.50;;;;;;5094892;28;20032;-73
2021/12/31 07:28:04;;;;;;;3.42;1.60;;;13.30;87.50;;;;;;5094775;28;20540;-73
2021/12/31 07:30:30;;;;;;;2.22;1.50;;;13.30;87.50;;;;;;5113197;28;20055;-77
2021/12/31 07:32:56;;;;;;;4.32;1.67;;;13.30;87.50;;;;;;5113000;28;20073;-77
2021/12/31 07:35:22;;;;;;;2.50;1.88;;;13.30;87.50;;;;;;5094761;28;20020;-78
2021/12/31 07:37:47;;;;;;;3.60;2.10;;;13.30;87.50;;;;;;5112900;28;20016;-78
2021/12/31 07:40:13;;;;;;;2.60;1.63;;;13.20;87.30;;;;;;5112980;28;20394;-78
2021/12/31 07:42:39;;;;;;;4.13;1.73;;;13.20;87.30;;;;;;5115882;28;20035;-79
2021/12/31 07:45:06;;;;;;;3.65;1.77;;;13.20;87.40;;;;;;5116901;28;20098;-78
2021/12/31 07:47:32;;;;;;;2.90;1.50;;;13.20;87.40;;;;;;5095584;28;20551;-79
2021/12/31 07:49:58;;;;;;;4.85;1.90;;;13.20;87.50;;;;;;5098415;28;20015;-77
2021/12/31 07:52:23;;;;;;;3.00;1.90;;;13.20;87.50;;;;;;5116766;28;20106;-78
2021/12/31 07:54:49;;;;;;;3.33;2.00;;;13.20;87.50;;;;;;5098135;28;20076;-78
2021/12/31 07:57:15;;;;;;;3.55;1.58;;;13.20;87.50;;;;;;5116577;28;20035;-79
2021/12/31 07:59:40;;;;;;;3.42;1.90;;;13.10;87.50;;;;;;5098298;28;20020;-78
2021/12/31 08:02:06;;;;;;;2.78;1.60;;;13.20;87.50;;;;;;5098272;28;20031;-79
2021/12/31 08:04:33;;;;;;;3.70;1.70;;;13.20;87.40;;;;;;5116433;28;20027;-79
2021/12/31 08:06:59;;;;;;;2.35;2.00;;;13.20;87.40;;;;;;5116592;28;20024;-78
2021/12/31 08:09:25;;;;;;;3.45;1.80;;;13.20;87.30;;;;;;5116621;28;20033;-78
2021/12/31 08:11:51;;;;;;;3.08;1.70;;;13.10;87.30;;;;;;5098155;28;20357;-77
2021/12/31 08:14:16;;;;;;;3.45;1.70;;;13.20;87.30;;;;;;5116050;28;20027;-79
2021/12/31 08:16:42;;;;;;;3.70;1.70;;;13.10;87.30;;;;;;5116264;28;20020;-78
2021/12/31 08:19:08;;;;;;;2.75;1.83;;;13.10;87.40;;;;;;5098003;28;20410;-77
2021/12/31 08:21:34;;;;;;;3.13;1.80;;;13.10;87.30;;;;;;5097833;28;20030;-78
2021/12/31 08:24:00;;;;;;;3.97;1.70;;;13.10;87.40;;;;;;5116091;28;20028;-78
2021/12/31 08:26:25;;;;;;;7.20;2.22;;;13.10;87.30;;;;;;5097699;28;20016;-78
2021/12/31 08:28:51;;;;;;;3.75;1.80;;;13.10;87.10;;;;;;5097765;28;20233;-79
2021/12/31 08:31:17;;;;;;;2.70;1.95;;;13.10;87.20;;;;;;5115868;28;20027;-78
2021/12/31 08:33:42;;;;;;;3.45;1.90;;;13.10;87.10;;;;;;5115929;28;20028;-79
2021/12/31 08:39:30;;;;;;;3.72;1.60;;;13.10;87.10;;;;;;5116127;28;20076;-78
2021/12/31 08:41:56;;;;;;;4.40;1.70;;;13.10;87.10;;;;;;5097440;28;20047;-78
2021/12/31 08:44:22;;;;;;;3.28;1.90;;;13.20;87.20;;;;;;5097423;28;20054;-79
2021/12/31 08:46:48;;;;;;;2.53;1.60;;;13.20;87.10;;;;;;5115621;28;20024;-78
2021/12/31 08:49:14;;;;;;;4.70;2.00;;;13.10;87.10;;;;;;5115523;28;20027;-78
2021/12/31 08:51:40;;;;;;;2.78;1.63;;;13.10;87.10;;;;;;5096913;28;20421;-78
2021/12/31 08:54:06;;;;;;;3.50;1.83;;;13.20;87.10;;;;;;5096672;28;20185;-79
2021/12/31 08:56:32;;;;;;;2.63;1.80;;;13.10;87.00;;;;;;5097038;28;20023;-77
2021/12/31 08:58:57;;;;;;;2.47;1.77;;;13.10;86.90;;;;;;5097170;28;20028;-79
2021/12/31 09:01:23;;;;;;;3.10;1.90;;;13.20;87.00;;;;;;5115360;28;20023;-79
2021/12/31 09:07:11;;;;;;;2.60;1.67;;;13.20;86.80;;;;;;5115511;28;20084;-78
2021/12/31 09:09:36;;;;;;;2.60;1.85;;;13.20;86.70;;;;;;5115282;28;20027;-77
2021/12/31 09:12:02;;;;;;;2.78;1.58;;;13.20;86.70;;;;;;5115106;28;20031;-77
2021/12/31 09:14:27;;;;;;;3.35;1.80;;;13.20;86.80;;;;;;5096619;28;20592;-78
2021/12/31 09:16:53;;;;;;;2.70;1.70;;;13.20;86.70;;;;;;5096744;28;20114;-78
2021/12/31 09:19:20;;;;;;;3.53;1.70;;;13.20;86.60;;;;;;5114819;28;20028;-77
2021/12/31 09:21:46;;;;;;;2.45;1.85;;;13.30;86.50;;;;;;5114950;28;20020;-76
2021/12/31 09:24:11;;;;;;;5.07;2.00;;;13.20;86.30;;;;;;5114965;28;20039;-78
2021/12/31 09:26:37;;;;;;;2.53;1.50;;;13.30;86.10;;;;;;5115014;28;20024;-78
2021/12/31 09:29:03;;;;;;;3.10;1.63;;;13.30;86.30;;;;;;5096539;28;20031;-78
2021/12/31 09:31:29;;;;;;;3.20;1.60;;;13.30;86.30;;;;;;5096418;28;20016;-78
2021/12/31 09:33:54;;;;;;;2.05;1.70;;;13.30;86.20;;;;;;5114707;28;20016;-78
2021/12/31 09:36:20;;;;;;;3.17;1.88;;;13.30;86.10;;;;;;5096408;28;20099;-78
2021/12/31 09:38:45;;;;;;;3.70;1.85;;;13.30;85.90;;;;;;5114600;28;20076;-78
2021/12/31 09:41:11;;;;;;;3.67;1.80;;;13.30;86.00;;;;;;5096174;28;20030;-77
2021/12/31 09:43:38;;;;;;;2.00;1.60;;;13.30;86.00;;;;;;5096749;28;20367;-78
2021/12/31 09:46:04;;;;;;;2.20;1.88;;;13.40;86.00;;;;;;5096871;28;20019;-77
2021/12/31 09:48:29;;;;;;;2.95;1.63;;;13.30;85.60;;;;;;5115088;28;20368;-77
2021/12/31 09:50:55;;;;;;;4.85;2.30;;;13.40;85.80;;;;;;5096623;28;20028;-77
2021/12/31 09:53:22;;;;;;;3.35;2.08;;;13.40;85.80;;;;;;5096448;28;20024;-77
2021/12/31 09:55:54;;;;;;;3.53;1.90;;;13.40;85.50;;;;;;5115155;28;20028;-77
2021/12/31 09:58:22;;;;;;;4.18;2.00;;;13.40;85.60;;;;;;5115155;28;20058;-78
2021/12/31 10:00:51;;;;;;;2.70;1.70;;;13.50;85.40;;;;;;5096368;28;20506;-77
2021/12/31 10:03:25;;;;;;;3.65;1.70;;;13.50;85.40;;;;;;5096494;28;20101;-77
2021/12/31 10:05:52;;;;;;;3.42;1.70;;;13.50;85.10;;;;;;5114096;28;20043;-77
2021/12/31 10:08:19;;;;;;;3.45;1.88;;;13.60;85.30;;;;;;5096317;28;20432;-77
2021/12/31 10:11:04;;;;;;;4.10;1.85;;;13.60;84.90;;;;;;5114239;28;20494;-77
2021/12/31 10:13:30;;;;;;;2.55;1.50;;;13.60;84.90;;;;;;5114512;28;20019;-78
2021/12/31 10:15:56;;;;;;;3.85;1.67;;;13.60;85.00;;;;;;5096270;28;20027;-77
2021/12/31 10:18:38;;;;;;;2.88;1.70;;;13.60;84.70;;;;;;5096252;28;20028;-77
2021/12/31 10:21:05;;;;;;;2.60;1.80;;;13.60;84.90;;;;;;5114264;28;20023;-77
2021/12/31 10:23:37;;;;;;;4.10;1.83;;;13.60;85.00;;;;;;5114025;28;20382;-77
2021/12/31 10:26:11;;;;;;;3.05;1.75;;;13.60;84.70;;;;;;5113925;28;20055;-77
2021/12/31 10:28:37;;;;;;;3.67;1.77;;;13.60;84.80;;;;;;5095573;28;20520;-78
2021/12/31 10:31:13;;;;;;;2.53;1.70;;;13.60;84.90;;;;;;5095857;28;20019;-78
2021/12/31 10:33:44;;;;;;;2.75;1.65;;;13.60;84.90;;;;;;5113982;28;20433;-77
2021/12/31 10:36:30;;;;;;;3.58;2.40;;;13.50;84.90;;;;;;5095650;28;20012;-78
2021/12/31 10:38:56;;;;;;;4.70;2.67;;;13.50;84.70;;;;;;5114267;28;20023;-77
2021/12/31 10:41:21;;;;;;;3.35;2.15;;;13.60;84.90;;;;;;5114690;28;20494;-77
2021/12/31 10:43:57;;;;;;;4.47;1.95;;;13.60;84.70;;;;;;5095723;28;20020;-77
2021/12/31 10:46:23;;;;;;;2.47;1.80;;;13.60;84.70;;;;;;5071072;28;20124;-77
2021/12/31 10:48:50;;;;;;;4.85;2.13;;;13.60;84.60;;;;;;5071348;28;20178;-76
2021/12/31 10:51:39;;;;;;;3.33;1.77;;;13.60;84.50;;;;;;5071559;28;20032;-77
2021/12/31 10:54:30;;;;;;;2.30;1.63;;;13.60;84.50;;;;;;5071260;28;20574;-77
2021/12/31 10:56:57;;;;;;;2.47;1.73;;;13.70;84.60;;;;;;5071177;28;20121;-77
2021/12/31 10:59:23;;;;;;;2.13;1.63;;;13.70;84.60;;;;;;5054993;28;20501;-78
2021/12/31 11:01:49;;;;;;;2.45;1.73;;;13.70;84.60;;;;;;5054626;28;20075;-77
2021/12/31 11:04:21;;;;;;;3.10;1.85;;;13.70;84.50;;;;;;5054630;28;20030;-77
2021/12/31 11:06:47;;;;;;;4.93;1.90;;;13.70;84.50;;;;;;5054368;28;20048;-77
2021/12/31 11:09:14;;;;;;;2.60;1.88;;;13.70;84.30;;;;;;5071422;28;20558;-76
2021/12/31 11:11:43;;;;;;;1.70;1.60;;;13.80;84.40;;;;;;5071402;28;20041;-77
2021/12/31 11:14:09;;;;;;;3.15;1.73;;;13.80;84.40;;;;;;5070848;28;20025;-77
2021/12/31 11:16:39;;;;;;;2.95;1.90;;;13.80;84.40;;;;;;5065445;28;20055;-76
2021/12/31 11:19:06;;;;;;;2.83;1.70;;;13.70;84.30;;;;;;5100209;28;20024;-76
2021/12/31 11:21:32;;;;;;;4.70;2.00;;;13.70;84.30;;;;;;5117578;28;20031;-77
2021/12/31 11:24:27;;;;;;;2.85;1.70;;;13.80;84.30;;;;;;5098912;28;20027;-77
2021/12/31 11:26:52;;;;;;;2.40;1.67;;;13.80;84.40;;;;;;5098819;28;20032;-77
2021/12/31 11:29:18;;;;;;;2.60;1.92;;;13.80;84.20;;;;;;5098874;28;20020;-76
2021/12/31 11:31:44;;;;;;;2.83;1.80;;;13.80;84.30;;;;;;5098846;28;20024;-76
2021/12/31 11:34:11;;;;;;;3.30;1.90;;;13.90;84.30;;;;;;5098637;28;20027;-77
2021/12/31 11:36:37;;;;;;;3.28;1.70;;;13.90;84.30;;;;;;5098771;28;20031;-78
2021/12/31 11:39:22;;;;;;;2.83;1.75;;;14.00;84.20;;;;;;5098768;28;20023;-77
2021/12/31 11:41:55;;;;;;;5.18;2.08;;;14.00;84.00;;;;;;5117063;28;20020;-78
2021/12/31 11:44:23;;;;;;;2.50;1.73;;;14.00;83.80;;;;;;5117063;28;20030;-77
2021/12/31 11:46:50;;;;;;;2.15;1.73;;;14.00;83.70;;;;;;5116749;28;20495;-77
2021/12/31 11:49:25;;;;;;;4.15;1.60;;;14.10;83.80;;;;;;5116921;28;20019;-77
2021/12/31 11:52:13;;;;;;;3.00;1.90;;;14.10;83.70;;;;;;5116847;28;20363;-78
2021/12/31 11:54:40;;;;;;;4.20;1.83;;;14.10;83.70;;;;;;5098503;28;20082;-78
2021/12/31 11:57:18;;;;;;;3.78;1.60;;;14.10;83.80;;;;;;5116728;28;20031;-78
2021/12/31 11:59:54;;;;;;;2.78;1.67;;;14.10;83.90;;;;;;5116634;28;20028;-78
2021/12/31 12:02:31;;;;;;;3.65;1.83;;;14.10;84.00;;;;;;5098412;28;20114;-78
2021/12/31 12:05:02;;;;;;;4.40;2.00;;;14.30;84.00;;;;;;5116602;28;20036;-79
2021/12/31 12:07:38;;;;;;;3.50;1.92;;;14.30;83.40;;;;;;5116584;28;20032;-78
2021/12/31 12:10:03;;;;;;;3.13;2.00;;;14.40;83.10;;;;;;5098150;28;20026;-77
2021/12/31 12:12:31;;;;;;;4.35;2.20;;;14.40;83.00;;;;;;5098073;28;20024;-77
2021/12/31 12:15:25;;;;;;;2.90;2.25;;;14.40;83.00;;;;;;5097917;28;20039;-76
2021/12/31 12:17:50;;;;;;;3.92;2.03;;;14.30;83.30;;;;;;5084746;28;20096;-77
2021/12/31 12:20:23;;;;;;;3.53;2.10;;;14.20;83.50;;;;;;5098102;28;20028;-77
2021/12/31 12:22:56;;;;;;;4.80;2.65;;;14.20;83.80;;;;;;5116207;28;20055;-79
2021/12/31 12:25:26;;;;;;;;;;;14.30;84.10;;;;;;5116802;28;20391;-78
2021/12/31 12:27:54;;;;;;;5.65;2.35;;;14.30;84.20;;;;;;5115088;28;19957;-78
2021/12/31 12:30:21;;;;;;;3.85;2.13;;;14.30;84.30;;;;;;5116002;28;20024;-77
2021/12/31 12:35:25;;;;;;;3.58;2.00;;;14.30;84.30;;;;;;5115936;28;20085;-78
2021/12/31 12:37:59;;;;;;;3.85;2.38;;;14.30;84.30;;;;;;5097416;28;20030;-78
2021/12/31 12:40:44;;;;;;;5.10;2.40;;;14.30;84.30;;;;;;5115983;28;20536;-78
2021/12/31 12:43:17;;;;;;;4.50;2.22;;;14.40;84.30;;;;;;5115673;28;20431;-78
2021/12/31 12:45:45;;;;;;;6.00;2.88;;;14.50;84.20;;;;;;5097582;28;20035;-77
2021/12/31 12:48:11;;;;;;;5.97;2.70;;;14.50;83.70;;;;;;5097431;28;20059;-78
2021/12/31 12:50:37;;;;;;;5.63;2.40;;;14.60;84.10;;;;;;5115707;28;20411;-77
2021/12/31 12:53:03;;;;;;;4.30;2.58;;;14.60;83.40;;;;;;5115527;28;20028;-78
2021/12/31 12:55:29;;;;;;;4.57;2.35;;;14.60;83.30;;;;;;5115736;28;20525;-78
2021/12/31 12:58:00;;;;;;;6.65;2.83;;;14.60;83.00;;;;;;5097351;28;20064;-77
2021/12/31 13:00:40;;;;;;;3.08;2.25;;;14.60;82.90;;;;;;5115862;28;20185;-78
2021/12/31 13:03:10;;;;;;;5.20;2.53;;;14.50;83.00;;;;;;5115760;28;20028;-78
2021/12/31 13:05:38;;;;;;;7.13;3.47;;;14.50;83.10;;;;;;5097794;28;20027;-78